PWSweather.com
Personal Weather Stations
Station Observations
REUBENS
Camas Prairie, Reubens, ID

Camas PrairieReubens, ID

Lat: 46.35417, Lon: -116.53167

Elevation: 3480

Station Type: Davis VantagePro 2

http://www.theobrienranch.com/wx/wx.htm

Latest ConditionsUpdated 8:00:00 PM PST Tuesday, Mar 3, 2015
Currently Today's Max Today's Min Today's Average
Temperature 22.6°F-5.2°C 38.1°F3.4°C 16.4°F-8.7°C 25.1°F-3.8°C
Dew Point 14.3°F-9.8°C 26.6°F-3.0°C 11.9°F-11.2°C 17.0°F-8.3°C
Winds 1.5 mph WNW2.4 kmh WNW 9.5 mph ENE15.3 kmh ENE - 3.3 mph 5.3 kmh
Wind Gusts 2.0 mph3.2 kmh 12.0 mph19.3 kmh - -
Humidity 70% 93% 56% 72%
Pressure 30.30 in1026.1 mb 30.30 in1026.1 mb 30.05 in1017.6 mb -
Precipitation - 0.22 in5.6 mm - -
Hour Temp Dew Point Humidity Winds Wind Gusts Pressure Precip Precip Rate Daily Precip Total
08:00 PM 22.6°F-5.2°C 14.3°F-9.8°C 70% 1.5 mph WNW2.4 kmh WNW 2.0 mph3.2 kmh 30.30 in1026.1 mb 0.00 in0.0 mm 0.00 in/hr0.0 mm/hr 0.22 in5.6 mm
07:30 PM 23.3°F-4.8°C 14.7°F-9.6°C 69% 2.9 mph WNW4.7 kmh WNW 4.0 mph6.4 kmh 30.30 in1026.1 mb 0.00 in0.0 mm 0.00 in/hr0.0 mm/hr 0.22 in5.6 mm
07:00 PM 23.9°F-4.5°C 15.5°F-9.2°C 70% 1.7 mph WNW2.7 kmh WNW 3.0 mph4.8 kmh 30.29 in1025.7 mb 0.00 in0.0 mm 0.00 in/hr0.0 mm/hr 0.22 in5.6 mm
06:30 PM 24.4°F-4.2°C 15.3°F-9.3°C 68% 1.9 mph WNW3.1 kmh WNW 3.0 mph4.8 kmh 30.30 in1026.1 mb 0.00 in0.0 mm 0.00 in/hr0.0 mm/hr 0.22 in5.6 mm
06:00 PM 25.2°F-3.8°C 15.8°F-9.0°C 67% 1.0 mph WNW1.6 kmh WNW 2.0 mph3.2 kmh 30.28 in1025.4 mb 0.00 in0.0 mm 0.00 in/hr0.0 mm/hr 0.22 in5.6 mm
05:30 PM 28.1°F-2.2°C 16.4°F-8.7°C 61% 1.8 mph WNW2.9 kmh WNW 2.0 mph3.2 kmh 30.27 in1025.1 mb 0.00 in0.0 mm 0.00 in/hr0.0 mm/hr 0.22 in5.6 mm
05:00 PM 29.4°F-1.4°C 16.0°F-8.9°C 57% 4.1 mph WNW6.6 kmh WNW 6.0 mph9.7 kmh 30.25 in1024.4 mb 0.00 in0.0 mm 0.00 in/hr0.0 mm/hr 0.22 in5.6 mm
04:30 PM 31.6°F-0.2°C 17.7°F-7.9°C 56% 5.1 mph W8.2 kmh W 12.0 mph19.3 kmh 30.24 in1024.0 mb 0.00 in0.0 mm 0.00 in/hr0.0 mm/hr 0.22 in5.6 mm
04:00 PM 31.7°F-0.2°C 18.2°F-7.7°C 57% 4.1 mph WNW6.6 kmh WNW 5.0 mph8.0 kmh 30.24 in1024.0 mb 0.00 in0.0 mm 0.00 in/hr0.0 mm/hr 0.22 in5.6 mm
03:30 PM 29.4°F-1.4°C 18.4°F-7.6°C 63% 3.6 mph W5.8 kmh W 4.0 mph6.4 kmh 30.25 in1024.4 mb 0.00 in0.0 mm 0.00 in/hr0.0 mm/hr 0.22 in5.6 mm
03:00 PM 29.0°F-1.7°C 18.0°F-7.8°C 63% 8.3 mph W13.4 kmh W 10.0 mph16.1 kmh 30.25 in1024.4 mb 0.00 in0.0 mm 0.00 in/hr0.0 mm/hr 0.22 in5.6 mm
02:30 PM 30.4°F-0.9°C 18.9°F-7.3°C 62% 3.8 mph W6.1 kmh W 9.0 mph14.5 kmh 30.25 in1024.4 mb 0.01 in0.3 mm 0.02 in/hr0.5 mm/hr 0.22 in5.6 mm
02:00 PM 29.9°F-1.2°C 19.2°F-7.1°C 64% 3.9 mph W6.3 kmh W 11.0 mph17.7 kmh 30.25 in1024.4 mb 0.03 in0.8 mm 0.06 in/hr1.5 mm/hr 0.21 in5.3 mm
01:30 PM 30.8°F-0.7°C 20.1°F-6.6°C 64% 4.0 mph W6.4 kmh W 5.0 mph8.0 kmh 30.24 in1024.0 mb 0.03 in0.8 mm 0.06 in/hr1.5 mm/hr 0.18 in4.6 mm
01:00 PM 35.2°F1.8°C 21.4°F-5.9°C 57% 2.1 mph W3.4 kmh W 4.0 mph6.4 kmh 30.23 in1023.7 mb 0.03 in0.8 mm 0.06 in/hr1.5 mm/hr 0.15 in3.8 mm
12:30 PM 32.9°F0.5°C 19.3°F-7.1°C 57% 1.1 mph N1.8 kmh N 3.0 mph4.8 kmh 30.23 in1023.7 mb 0.03 in0.8 mm 0.06 in/hr1.5 mm/hr 0.12 in3.0 mm
12:00 PM 38.1°F3.4°C 26.6°F-3.0°C 63% 1.0 mph NW1.6 kmh NW 1.0 mph1.6 kmh 30.21 in1023.0 mb 0.03 in0.8 mm 0.06 in/hr1.5 mm/hr 0.09 in2.3 mm
11:30 AM 25.9°F-3.4°C 17.5°F-8.1°C 70% 5.4 mph W8.7 kmh W 8.0 mph12.9 kmh 30.26 in1024.7 mb 0.02 in0.5 mm 0.04 in/hr1.0 mm/hr 0.06 in1.5 mm
11:00 AM 25.1°F-3.8°C 16.4°F-8.7°C 69% 1.5 mph SSW2.4 kmh SSW 4.0 mph6.4 kmh 30.26 in1024.7 mb 0.02 in0.5 mm 0.04 in/hr1.0 mm/hr 0.04 in1.0 mm
10:30 AM 25.1°F-3.8°C 17.0°F-8.3°C 71% Calm Calm -- 30.26 in1024.7 mb 0.00 in0.0 mm 0.00 in/hr0.0 mm/hr 0.02 in0.5 mm
10:00 AM 26.2°F-3.2°C 17.0°F-8.3°C 68% Calm Calm -- 30.25 in1024.4 mb 0.01 in0.3 mm 0.02 in/hr0.5 mm/hr 0.02 in0.5 mm
09:30 AM 25.0°F-3.9°C 14.9°F-9.5°C 65% Calm Calm -- 30.24 in1024.0 mb 0.00 in0.0 mm 0.00 in/hr0.0 mm/hr 0.01 in0.3 mm
09:00 AM 21.5°F-5.8°C 13.6°F-10.2°C 71% 1.0 mph E1.6 kmh E 1.0 mph1.6 kmh 30.25 in1024.4 mb 0.01 in0.3 mm 0.02 in/hr0.5 mm/hr 0.01 in0.3 mm
08:30 AM 24.4°F-4.2°C 16.0°F-8.9°C 70% Calm Calm -- 30.23 in1023.7 mb 0.00 in0.0 mm 0.00 in/hr0.0 mm/hr 0.00 in0.0 mm
08:00 AM 20.2°F-6.6°C 12.9°F-10.6°C 73% 2.6 mph E4.2 kmh E 3.0 mph4.8 kmh 30.24 in1024.0 mb 0.00 in0.0 mm 0.00 in/hr0.0 mm/hr 0.00 in0.0 mm
07:30 AM 19.4°F-7.0°C 12.8°F-10.7°C 75% 4.3 mph E6.9 kmh E 5.0 mph8.0 kmh 30.24 in1024.0 mb 0.00 in0.0 mm 0.00 in/hr0.0 mm/hr 0.00 in0.0 mm
07:00 AM 19.1°F-7.2°C 12.4°F-10.9°C 75% 4.0 mph ENE6.4 kmh ENE 5.0 mph8.0 kmh 30.23 in1023.7 mb 0.00 in0.0 mm 0.00 in/hr0.0 mm/hr 0.00 in0.0 mm
06:30 AM 19.2°F-7.1°C 12.9°F-10.6°C 76% 3.7 mph ENE6.0 kmh ENE 4.0 mph6.4 kmh 30.24 in1024.0 mb 0.00 in0.0 mm 0.00 in/hr0.0 mm/hr 0.00 in0.0 mm
06:00 AM 19.1°F-7.2°C 13.7°F-10.2°C 79% 4.8 mph ENE7.7 kmh ENE 6.0 mph9.7 kmh 30.23 in1023.7 mb 0.00 in0.0 mm 0.00 in/hr0.0 mm/hr 0.00 in0.0 mm
05:30 AM 19.7°F-6.8°C 14.2°F-9.9°C 79% Calm Calm -- 30.22 in1023.4 mb 0.00 in0.0 mm 0.00 in/hr0.0 mm/hr 0.00 in0.0 mm
05:00 AM 17.9°F-7.8°C 13.3°F-10.4°C 82% 0.2 mph ENE0.3 kmh ENE 2.0 mph3.2 kmh 30.21 in1023.0 mb 0.00 in0.0 mm 0.00 in/hr0.0 mm/hr 0.00 in0.0 mm
04:30 AM 16.4°F-8.7°C 11.9°F-11.2°C 82% Calm Calm -- 30.22 in1023.4 mb 0.00 in0.0 mm 0.00 in/hr0.0 mm/hr 0.00 in0.0 mm
04:00 AM 18.9°F-7.3°C 14.3°F-9.8°C 82% 2.9 mph NE4.7 kmh NE 5.0 mph8.0 kmh 30.19 in1022.4 mb 0.00 in0.0 mm 0.00 in/hr0.0 mm/hr 0.00 in0.0 mm
03:30 AM 20.2°F-6.6°C 14.7°F-9.6°C 79% 9.5 mph E15.3 kmh E 10.0 mph16.1 kmh 30.17 in1021.7 mb 0.00 in0.0 mm 0.00 in/hr0.0 mm/hr 0.00 in0.0 mm
03:00 AM 21.5°F-5.8°C 16.9°F-8.4°C 82% 9.5 mph ENE15.3 kmh ENE 11.0 mph17.7 kmh 30.15 in1021.0 mb 0.00 in0.0 mm 0.00 in/hr0.0 mm/hr 0.00 in0.0 mm
02:30 AM 21.3°F-5.9°C 17.2°F-8.2°C 84% 7.4 mph ENE11.9 kmh ENE 9.0 mph14.5 kmh 30.13 in1020.3 mb 0.00 in0.0 mm 0.00 in/hr0.0 mm/hr 0.00 in0.0 mm
02:00 AM 22.8°F-5.1°C 19.2°F-7.1°C 86% 2.6 mph ENE4.2 kmh ENE 3.0 mph4.8 kmh 30.12 in1020.0 mb 0.00 in0.0 mm 0.00 in/hr0.0 mm/hr 0.00 in0.0 mm
01:30 AM 24.8°F-4.0°C 21.7°F-5.7°C 88% 6.4 mph ENE10.3 kmh ENE 9.0 mph14.5 kmh 30.09 in1019.0 mb 0.00 in0.0 mm 0.00 in/hr0.0 mm/hr 0.00 in0.0 mm
01:00 AM 25.0°F-3.9°C 22.5°F-5.3°C 90% 3.4 mph ENE5.5 kmh ENE 4.0 mph6.4 kmh 30.08 in1018.6 mb 0.00 in0.0 mm 0.00 in/hr0.0 mm/hr 0.00 in0.0 mm
12:30 AM 26.0°F-3.3°C 23.7°F-4.6°C 91% 7.4 mph ENE11.9 kmh ENE 10.0 mph16.1 kmh 30.06 in1017.9 mb 0.00 in0.0 mm 0.00 in/hr0.0 mm/hr 0.00 in0.0 mm
12:00 AM 26.6°F-3.0°C 24.8°F-4.0°C 93% 8.0 mph NE12.9 kmh NE 10.0 mph16.1 kmh 30.05 in1017.6 mb 0.00 in0.0 mm 0.00 in/hr0.0 mm/hr 0.00 in0.0 mm